Other Surface Observations
Issued by NWS Great Falls, MT

Home | Current Version | Previous Version | Text Only | Print | Product List | Glossary On
Versions: 1 2 3 4 5 6 7 8 9 10 11 12 13 14 15 16 17 18 19 20 21 22 23 24 25 26 27 28 29 30 31 32 33 34 35 36 37 38 39 40 41 42 43 44 45 46 47 48 49 50
870
SXUS55 KTFX 221744
OSOTFX
AREA AWOS OBSERVATIONS
NATIONAL WEATHER SERVICE GREAT FALLS MT
1144 AM MDT TUE AUG 22 2017

METAR KPWD 221745Z AUTO 00000KT 10SM 23/03 A3018 RMK PLENTYWOOD
METAR KS71 221745Z AUTO 08003KT 10SM 24/07 A3013 RMK CHINOOK
METAR K38S 221745Z AUTO 01003KT 9SM 21/03 A3024 RMK DEER LODGE
METAR K3U3 221745Z AUTO 04003KT 10SM 24/02 A3021 RMK ANACONDA
METAR K6S5 221745Z AUTO 00000KT 7SM 21/07 A3017 RMK HAMILTON
METAR KS59 221745Z AUTO 00000KT 10SM 23/06 A3010 RMK LIBBY
METAR K88M 221745Z AUTO 10SM 23/06 A3014 RMK EUREKA



USA.gov is the U.S. government's official web portal to all federal, state and local government web resources and services.